Otis, CO

6:38 AM MDT on July 30, 2014 (GMT -0600)
Akron-Washington County (KAKO) Elev 4662 ft | 40.17 °N, 103.21 °W | Change Station

Current weather conditions updated 5 minutes ago

Light Rain
Light Rain Mist
59 °F
Feels Like 59 °F
N
10
Wind Variable Wind from East

Today is forecast to be Much Cooler than yesterday. Thunderstorms.

Today
High -- | Low -- °F
--% Chance of Precip.
Yesterday
High -- | Low -- °F
Precip. -- in
5:47 AM 8:08 PM
Waxing Crescent, 11% visible
Pressure 30.27 in
Visibility 4.0 miles
Clouds Mostly Cloudy 400 ft
Overcast 700 ft
Dew Point 58 °F
Humidity 96%
Rainfall 0.03 in
Snow Depth Not available.
UV 0 out of 12
Pollen .80 out of 12
Air Quality Not available.
Flu Activity Not available.
SPECI KAKO 301233Z AUTO 08009KT 4SM -RA BR BKN004 OVC007 15/14 A3027 RMK AO2 P0002 T01500144

More Conditions Fewer Conditions

Pressure 30.27 in
Visibility 4.0 miles
Clouds Mostly Cloudy 400 ft
Overcast 700 ft
Dew Point 58 °F
Humidity 96%
Rainfall 0.03 in
Snow Depth Not available.
UV 0 out of 12
Pollen .80 out of 12
Air Quality Not available.
Flu Activity Not available.
SPECI KAKO 301233Z AUTO 08009KT 4SM -RA BR BKN004 OVC007 15/14 A3027 RMK AO2 P0002 T01500144

More Conditions Fewer Conditions

Nowcast | as of 4:48 am MDT on July 30, 2014

Scattered light showers will continue over Morgan and Washington counties through 8 am. Rainfall rates will be under one quarter inch per hour.

×

10-Day Weather Forecast

Almanac

Astronomy

Jul. 30, 2014 Rise Set
Actual Time 5:47 AM MDT 8:08 PM MDT
Civil Twilight 5:17 AM MDT 8:38 PM MDT
Nautical Twilight 4:39 AM MDT 9:16 PM MDT
Astronomical Twilight 3:57 AM MDT 9:57 PM MDT
Moon 9:21 AM MDT 9:51 PM MDT
Length of Visible Light 15h 21m
Length of Day
14h 20m
Tomorrow will be 1m 58s shorter.
Waxing Crescent, 11% of the Moon is Illuminated
Today
Waxing Crescent
Aug 3
First Quarter
Aug 10
Full
Aug 17
Last Quarter
Aug 25
New

Today's Extremes

State Highs State Lows

Community

WunderPhotos

Upload Photos

1,739,058 photos uploaded!

Nearby

Snow Depth

Station Depth Elevation
Niwot 0 in 9910 ft
Copeland Lake 0 in 8600 ft
University Camp 0 in 10300 ft
Wild Basin 1 in 9560 ft
Bear Lake 0 in 9500 ft

Earthquake Activity

City Distance Mag. Time & Date
No recent earthquake activity has been reported nearby.
Minimum magnitude displayed is 2.5.

Coastal Water Temperatures

Place Temperature
No Stations Reporting

Nearby Weather Stations

Station Location Temp. Dew Point Humidity Wind Precip. Elev Updated Type
Yuma, CO 61.1 °F 60 °F 95% East  at  3.0 mph 0.00 in / hr 4134 ft 6:37 AM MDT Normal

Show More Stations Show Fewer Stations